Jewel Of The Seas — C6FW9 — position and weather

sailwx.info

Track history (hours):
 
Tides and Currents Weather Stations Pressure Air Temp Water Temp Dewpoint Dewpoint Depression Visibility Wind Speed Wind Dir Waves Ship Positions

Jewel Of The Seas

Operator: Royal Caribbean Cruises Ltd

Last reported at 2020-Sep-28 11:59 UTC. Time now 2020-Sep-28 12:04 UTC.
Position N 50°40' W 001°51'.

Length 290 m; draft 8.5 m.

Type: Ship. MMSI: 311583000.

Date/timePositionNaut miles runAvg speedWind from/ knotsBaromVisibWave heightAir tempDewpointWater temp
2020-Sep-28 11:59N 50°40' W 001°51'0 0.0
2020-Sep-28 11:29N 50°40' W 001°51'0 0.0
2020-Sep-28 10:53N 50°40' W 001°51'0 0.0
2020-Sep-28 10:29N 50°40' W 001°51'0 0.0
2020-Sep-28 08:29N 50°40' W 001°51'0 0.0
2020-Sep-28 07:29N 50°40' W 001°51'0 0.0
2020-Sep-28 02:59N 50°40' W 001°51'0 0.0
2020-Sep-28 01:29N 50°40' W 001°51'0 0.0
2020-Sep-28 00:59N 50°40' W 001°51'0 0.0
2020-Sep-27 21:59N 50°40' W 001°51'0 0.0
2020-Sep-27 19:59N 50°40' W 001°51'0 0.0
2020-Sep-27 18:59N 50°40' W 001°51'0 0.0
2020-Sep-27 16:59N 50°40' W 001°51'0 0.0
2020-Sep-27 13:59N 50°40' W 001°51'0 0.0
2020-Sep-27 12:59N 50°40' W 001°51'0 0.0
2020-Sep-27 09:59N 50°40' W 001°51'0 0.0
2020-Sep-27 07:29N 50°40' W 001°51'0 0.0
2020-Sep-27 02:59N 50°40' W 001°51'0 0.0
2020-Sep-26 22:56N 50°40' W 001°51'0 0.0
2020-Sep-26 21:56N 50°40' W 001°51'0 0.0
2020-Sep-26 18:59N 50°40' W 001°51'0 0.0
2020-Sep-26 14:59N 50°40' W 001°51'0 0.0
2020-Sep-26 10:59N 50°40' W 001°51'0 0.0
2020-Sep-26 09:29N 50°40' W 001°51'0 0.0
2020-Sep-26 07:59N 50°40' W 001°51'0 0.0
2020-Sep-26 07:29N 50°40' W 001°51'0 0.0
2020-Sep-26 06:59N 50°40' W 001°51'0 0.0
2020-Sep-26 06:29N 50°40' W 001°51'0 0.0
2020-Sep-26 05:29N 50°40' W 001°51'0 0.0
2020-Sep-26 00:29N 50°40' W 001°51'0 0.0
2020-Sep-25 23:29N 50°40' W 001°51'0 0.0
2020-Sep-25 20:29N 50°40' W 001°51'0 0.0
2020-Sep-25 19:29N 50°40' W 001°51'0 0.0
2020-Sep-25 14:29N 50°40' W 001°51'1 2.0
2020-Sep-25 14:00N 50°39' W 001°52'4 7.1
2020-Sep-25 13:30N 50°36' W 001°50'2 0.4
2020-Sep-25 08:30N 50°37' W 001°53'4 3.3
2020-Sep-25 07:26N 50°40' W 001°51'0 0.0
2020-Sep-25 06:56N 50°40' W 001°51'0 0.0
2020-Sep-25 05:59N 50°40' W 001°51'0 0.0
2020-Sep-25 03:56N 50°40' W 001°51'0 0.0
2020-Sep-25 00:26N 50°40' W 001°51'0 0.0
2020-Sep-24 16:56N 50°40' W 001°51'0 0.0
2020-Sep-24 15:50N 50°40' W 001°51'0 0.0
2020-Sep-24 15:29N 50°40' W 001°51'0 0.0
2020-Sep-24 13:59N 50°40' W 001°51'0 0.0
2020-Sep-24 07:26N 50°40' W 001°51'0 0.1
2020-Sep-24 06:29N 50°40' W 001°51'0 0.1
2020-Sep-24 05:26N 50°40' W 001°51'0 0.0
2020-Sep-24 02:59N 50°40' W 001°51'0 0.0
2020-Sep-24 02:23N 50°40' W 001°51'0 0.0
2020-Sep-24 01:59N 50°40' W 001°51'0 0.0
2020-Sep-23 21:26N 50°40' W 001°51'0 0.0
2020-Sep-23 19:59N 50°40' W 001°51'0 0.1
2020-Sep-23 19:23N 50°40' W 001°51'0 0.0
2020-Sep-23 18:59N 50°40' W 001°51'0 0.0
2020-Sep-23 14:59N 50°40' W 001°51'0 0.0
2020-Sep-23 13:59N 50°40' W 001°51'0 0.0
2020-Sep-23 11:59N 50°40' W 001°51'0 0.0
2020-Sep-23 10:59N 50°40' W 001°51'0 0.0
2020-Sep-23 10:26N 50°40' W 001°51'0 0.0
2020-Sep-23 01:59N 50°40' W 001°51'0 0.0
2020-Sep-22 22:59N 50°40' W 001°51'0 0.0
2020-Sep-22 16:29N 50°40' W 001°51'0 0.1
2020-Sep-22 15:59N 50°40' W 001°51'0 0.1
2020-Sep-22 15:26N 50°40' W 001°51'0 0.0
2020-Sep-22 11:59N 50°40' W 001°51'0 0.0
2020-Sep-22 10:56N 50°40' W 001°51'0 0.0
2020-Sep-22 09:59N 50°40' W 001°51'0 0.2
2020-Sep-22 09:29N 50°40' W 001°51'0 0.0
2020-Sep-22 07:59N 50°40' W 001°51'0 0.1
2020-Sep-22 07:29N 50°40' W 001°51'0 0.1
2020-Sep-22 06:59N 50°40' W 001°51'0 0.0
2020-Sep-22 04:59N 50°40' W 001°51'0 0.0
2020-Sep-22 03:59N 50°40' W 001°51'0 0.0
2020-Sep-22 03:29N 50°40' W 001°51'0 0.0
2020-Sep-21 22:59N 50°40' W 001°51'0 0.0
2020-Sep-21 21:59N 50°40' W 001°51'0 0.0
2020-Sep-21 21:29N 50°40' W 001°51'0 0.0
2020-Sep-21 20:29N 50°40' W 001°51'0 0.0
2020-Sep-21 17:29N 50°40' W 001°51'0 0.0
2020-Sep-21 15:59N 50°40' W 001°51'0 0.1
2020-Sep-21 13:59N 50°40' W 001°51'0 0.0
2020-Sep-21 10:29N 50°40' W 001°51'0 0.0
2020-Sep-21 08:29N 50°40' W 001°51'0 0.1
2020-Sep-21 07:29N 50°40' W 001°51'0 0.0
2020-Sep-21 05:29N 50°40' W 001°51'0 0.0
2020-Sep-21 01:29N 50°40' W 001°51'0 0.0
2020-Sep-21 00:29N 50°40' W 001°51'0 0.1
2020-Sep-20 23:29N 50°40' W 001°51'0 0.0
2020-Sep-20 19:26N 50°40' W 001°51'0 0.1
2020-Sep-20 18:59N 50°40' W 001°51'0 0.0
2020-Sep-20 17:59N 50°40' W 001°51'0 0.0
2020-Sep-20 17:20N 50°40' W 001°51'0 0.0
2020-Sep-20 16:59N 50°40' W 001°51'0 0.0
2020-Sep-20 16:26N 50°40' W 001°51'0 0.0
2020-Sep-20 15:56N 50°40' W 001°51'0 0.0
2020-Sep-20 14:26N 50°40' W 001°51'0 0.0
2020-Sep-20 12:26N 50°40' W 001°51'0 0.1
2020-Sep-20 11:56N 50°40' W 001°51'0 0.1
2020-Sep-20 11:26N 50°40' W 001°51'0 0.0
2020-Sep-20 10:29N 50°40' W 001°51'0 0.1
2020-Sep-20 08:26N 50°40' W 001°51'0 0.0
2020-Sep-20 06:56N 50°40' W 001°51'0 0.0
2020-Sep-20 05:59N 50°40' W 001°51'0 0.0
2020-Sep-19 23:59N 50°40' W 001°51'0 0.0
2020-Sep-19 20:26N 50°40' W 001°51'2 1.1
2020-Sep-19 19:00N 50°39' W 001°52'11 7.4
2020-Sep-19 17:30N 50°27' W 001°53'7 5.7
2020-Sep-19 16:13N 50°21' W 001°58'  
Track history (hours):
 
Tides and Currents Weather Stations Pressure Air Temp Water Temp Dewpoint Dewpoint Depression Visibility Wind Speed Wind Dir Waves Ship Positions

Jewel Of The Seas

Operator: Royal Caribbean Cruises Ltd

Last reported at 2020-Sep-28 11:59 UTC. Time now 2020-Sep-28 12:04 UTC.
Position N 50°40' W 001°51'.

Length 290 m; draft 8.5 m.

Type: Ship. MMSI: 311583000.

Date/timePositionNaut miles runAvg speedWind from/ knotsBaromVisibWave heightAir tempDewpointWater temp
2020-Sep-28 11:59N 50°40' W 001°51'0 0.0
2020-Sep-28 11:29N 50°40' W 001°51'0 0.0
2020-Sep-28 10:53N 50°40' W 001°51'0 0.0
2020-Sep-28 10:29N 50°40' W 001°51'0 0.0
2020-Sep-28 08:29N 50°40' W 001°51'0 0.0
2020-Sep-28 07:29N 50°40' W 001°51'0 0.0
2020-Sep-28 02:59N 50°40' W 001°51'0 0.0
2020-Sep-28 01:29N 50°40' W 001°51'0 0.0
2020-Sep-28 00:59N 50°40' W 001°51'0 0.0
2020-Sep-27 21:59N 50°40' W 001°51'0 0.0
2020-Sep-27 19:59N 50°40' W 001°51'0 0.0
2020-Sep-27 18:59N 50°40' W 001°51'0 0.0
2020-Sep-27 16:59N 50°40' W 001°51'0 0.0
2020-Sep-27 13:59N 50°40' W 001°51'0 0.0
2020-Sep-27 12:59N 50°40' W 001°51'0 0.0
2020-Sep-27 09:59N 50°40' W 001°51'0 0.0
2020-Sep-27 07:29N 50°40' W 001°51'0 0.0
2020-Sep-27 02:59N 50°40' W 001°51'0 0.0
2020-Sep-26 22:56N 50°40' W 001°51'0 0.0
2020-Sep-26 21:56N 50°40' W 001°51'0 0.0
2020-Sep-26 18:59N 50°40' W 001°51'0 0.0
2020-Sep-26 14:59N 50°40' W 001°51'0 0.0
2020-Sep-26 10:59N 50°40' W 001°51'0 0.0
2020-Sep-26 09:29N 50°40' W 001°51'0 0.0
2020-Sep-26 07:59N 50°40' W 001°51'0 0.0
2020-Sep-26 07:29N 50°40' W 001°51'0 0.0
2020-Sep-26 06:59N 50°40' W 001°51'0 0.0
2020-Sep-26 06:29N 50°40' W 001°51'0 0.0
2020-Sep-26 05:29N 50°40' W 001°51'0 0.0
2020-Sep-26 00:29N 50°40' W 001°51'0 0.0
2020-Sep-25 23:29N 50°40' W 001°51'0 0.0
2020-Sep-25 20:29N 50°40' W 001°51'0 0.0
2020-Sep-25 19:29N 50°40' W 001°51'0 0.0
2020-Sep-25 14:29N 50°40' W 001°51'1 2.0
2020-Sep-25 14:00N 50°39' W 001°52'4 7.1
2020-Sep-25 13:30N 50°36' W 001°50'2 0.4
2020-Sep-25 08:30N 50°37' W 001°53'4 3.3
2020-Sep-25 07:26N 50°40' W 001°51'0 0.0
2020-Sep-25 06:56N 50°40' W 001°51'0 0.0
2020-Sep-25 05:59N 50°40' W 001°51'0 0.0
2020-Sep-25 03:56N 50°40' W 001°51'0 0.0
2020-Sep-25 00:26N 50°40' W 001°51'0 0.0
2020-Sep-24 16:56N 50°40' W 001°51'0 0.0
2020-Sep-24 15:50N 50°40' W 001°51'0 0.0
2020-Sep-24 15:29N 50°40' W 001°51'0 0.0
2020-Sep-24 13:59N 50°40' W 001°51'0 0.0
2020-Sep-24 07:26N 50°40' W 001°51'0 0.1
2020-Sep-24 06:29N 50°40' W 001°51'0 0.1
2020-Sep-24 05:26N 50°40' W 001°51'0 0.0
2020-Sep-24 02:59N 50°40' W 001°51'0 0.0
2020-Sep-24 02:23N 50°40' W 001°51'0 0.0
2020-Sep-24 01:59N 50°40' W 001°51'0 0.0
2020-Sep-23 21:26N 50°40' W 001°51'0 0.0
2020-Sep-23 19:59N 50°40' W 001°51'0 0.1
2020-Sep-23 19:23N 50°40' W 001°51'0 0.0
2020-Sep-23 18:59N 50°40' W 001°51'0 0.0
2020-Sep-23 14:59N 50°40' W 001°51'0 0.0
2020-Sep-23 13:59N 50°40' W 001°51'0 0.0
2020-Sep-23 11:59N 50°40' W 001°51'0 0.0
2020-Sep-23 10:59N 50°40' W 001°51'0 0.0
2020-Sep-23 10:26N 50°40' W 001°51'0 0.0
2020-Sep-23 01:59N 50°40' W 001°51'0 0.0
2020-Sep-22 22:59N 50°40' W 001°51'0 0.0
2020-Sep-22 16:29N 50°40' W 001°51'0 0.1
2020-Sep-22 15:59N 50°40' W 001°51'0 0.1
2020-Sep-22 15:26N 50°40' W 001°51'0 0.0
2020-Sep-22 11:59N 50°40' W 001°51'0 0.0
2020-Sep-22 10:56N 50°40' W 001°51'0 0.0
2020-Sep-22 09:59N 50°40' W 001°51'0 0.2
2020-Sep-22 09:29N 50°40' W 001°51'0 0.0
2020-Sep-22 07:59N 50°40' W 001°51'0 0.1
2020-Sep-22 07:29N 50°40' W 001°51'0 0.1
2020-Sep-22 06:59N 50°40' W 001°51'0 0.0
2020-Sep-22 04:59N 50°40' W 001°51'0 0.0
2020-Sep-22 03:59N 50°40' W 001°51'0 0.0
2020-Sep-22 03:29N 50°40' W 001°51'0 0.0
2020-Sep-21 22:59N 50°40' W 001°51'0 0.0
2020-Sep-21 21:59N 50°40' W 001°51'0 0.0
2020-Sep-21 21:29N 50°40' W 001°51'0 0.0
2020-Sep-21 20:29N 50°40' W 001°51'0 0.0
2020-Sep-21 17:29N 50°40' W 001°51'0 0.0
2020-Sep-21 15:59N 50°40' W 001°51'0 0.1
2020-Sep-21 13:59N 50°40' W 001°51'0 0.0
2020-Sep-21 10:29N 50°40' W 001°51'0 0.0
2020-Sep-21 08:29N 50°40' W 001°51'0 0.1
2020-Sep-21 07:29N 50°40' W 001°51'0 0.0
2020-Sep-21 05:29N 50°40' W 001°51'0 0.0
2020-Sep-21 01:29N 50°40' W 001°51'0 0.0
2020-Sep-21 00:29N 50°40' W 001°51'0 0.1
2020-Sep-20 23:29N 50°40' W 001°51'0 0.0
2020-Sep-20 19:26N 50°40' W 001°51'0 0.1
2020-Sep-20 18:59N 50°40' W 001°51'0 0.0
2020-Sep-20 17:59N 50°40' W 001°51'0 0.0
2020-Sep-20 17:20N 50°40' W 001°51'0 0.0
2020-Sep-20 16:59N 50°40' W 001°51'0 0.0
2020-Sep-20 16:26N 50°40' W 001°51'0 0.0
2020-Sep-20 15:56N 50°40' W 001°51'0 0.0
2020-Sep-20 14:26N 50°40' W 001°51'0 0.0
2020-Sep-20 12:26N 50°40' W 001°51'0 0.1
2020-Sep-20 11:56N 50°40' W 001°51'0 0.1
2020-Sep-20 11:26N 50°40' W 001°51'0 0.0
2020-Sep-20 10:29N 50°40' W 001°51'0 0.1
2020-Sep-20 08:26N 50°40' W 001°51'0 0.0
2020-Sep-20 06:56N 50°40' W 001°51'0 0.0
2020-Sep-20 05:59N 50°40' W 001°51'0 0.0
2020-Sep-19 23:59N 50°40' W 001°51'0 0.0
2020-Sep-19 20:26N 50°40' W 001°51'2 1.1
2020-Sep-19 19:00N 50°39' W 001°52'11 7.4
2020-Sep-19 17:30N 50°27' W 001°53'7 5.7
2020-Sep-19 16:13N 50°21' W 001°58'  

Dump ship's entire track history